createdAt,value
2023-01-29T00:02:25.322Z,0.60
2023-01-29T00:04:53.736Z,0.60
2023-01-29T00:07:23.860Z,0.60
2023-01-29T00:09:51.964Z,0.60
2023-01-29T00:12:20.060Z,0.60
2023-01-29T00:14:48.462Z,0.60
2023-01-29T00:17:18.286Z,0.60
2023-01-29T00:19:46.730Z,0.70
2023-01-29T00:22:14.867Z,0.60
2023-01-29T00:24:44.612Z,0.60
2023-01-29T00:27:12.717Z,0.60
2023-01-29T00:29:41.745Z,0.60
2023-01-29T00:32:09.945Z,0.60
2023-01-29T00:34:39.669Z,0.70
2023-01-29T00:37:08.881Z,0.70
2023-01-29T00:39:47.813Z,0.70
2023-01-29T00:42:34.119Z,0.70
2023-01-29T00:45:02.201Z,0.60
2023-01-29T00:47:34.642Z,0.70
2023-01-29T00:50:05.822Z,0.70
2023-01-29T00:52:36.386Z,0.70
2023-01-29T00:55:06.434Z,0.80
2023-01-29T00:57:36.238Z,0.70
2023-01-29T01:00:05.463Z,0.70
2023-01-29T01:02:51.497Z,0.80
2023-01-29T01:05:21.231Z,0.80
2023-01-29T01:07:51.244Z,0.70
2023-01-29T01:10:23.651Z,0.70
2023-01-29T01:12:54.722Z,0.70
2023-01-29T01:15:24.347Z,0.70
2023-01-29T01:17:56.819Z,0.70
2023-01-29T01:20:27.881Z,0.70
2023-01-29T01:22:56.607Z,0.70
2023-01-29T01:25:26.422Z,0.70
2023-01-29T01:27:55.287Z,0.70
2023-01-29T01:30:24.525Z,0.70
2023-01-29T01:32:53.006Z,0.70
2023-01-29T01:35:21.298Z,0.70
2023-01-29T01:37:51.082Z,0.80
2023-01-29T01:40:21.110Z,0.80
2023-01-29T01:42:50.635Z,0.80
2023-01-29T01:45:30.052Z,0.80
2023-01-29T01:48:01.758Z,0.70
2023-01-29T01:50:35.716Z,0.80
2023-01-29T01:53:09.121Z,0.80
2023-01-29T01:55:41.846Z,0.80
2023-01-29T01:58:13.483Z,0.80
2023-01-29T02:00:41.798Z,0.90
2023-01-29T02:03:29.956Z,1.00
2023-01-29T02:06:18.548Z,0.90
2023-01-29T02:09:11.403Z,0.90
2023-01-29T02:11:40.731Z,1.00
2023-01-29T02:14:10.664Z,0.90
2023-01-29T02:16:39.578Z,1.10
2023-01-29T02:19:17.493Z,1.00
2023-01-29T02:22:20.444Z,1.00
2023-01-29T02:25:09.947Z,0.90
2023-01-29T02:28:02.000Z,1.00
2023-01-29T02:30:37.679Z,1.00
2023-01-29T02:33:12.950Z,0.90
2023-01-29T02:35:46.341Z,1.00
2023-01-29T02:38:24.675Z,1.00
2023-01-29T02:40:57.609Z,1.00
2023-01-29T02:43:35.421Z,0.90
2023-01-29T02:46:13.790Z,1.00
2023-01-29T02:48:46.950Z,1.00
2023-01-29T02:51:21.199Z,1.00
2023-01-29T02:53:57.112Z,0.90
2023-01-29T02:56:31.911Z,0.90
2023-01-29T02:59:03.040Z,0.90
2023-01-29T03:01:36.668Z,0.90
2023-01-29T03:04:09.962Z,1.00
2023-01-29T03:06:42.712Z,1.00
2023-01-29T03:09:16.614Z,1.00
2023-01-29T03:11:50.157Z,0.90
2023-01-29T03:14:23.387Z,0.90
2023-01-29T03:16:54.368Z,0.90
2023-01-29T03:19:28.669Z,0.90
2023-01-29T03:22:00.217Z,0.90
2023-01-29T03:24:53.540Z,1.00
2023-01-29T03:27:46.925Z,1.00
2023-01-29T03:30:36.141Z,1.00
2023-01-29T03:33:09.051Z,1.00
2023-01-29T03:35:41.651Z,1.00
2023-01-29T03:38:12.323Z,1.00
2023-01-29T03:40:48.398Z,0.90
2023-01-29T03:43:27.884Z,0.90
2023-01-29T03:46:02.791Z,0.90
2023-01-29T03:48:37.964Z,1.00
2023-01-29T03:51:17.626Z,1.00
2023-01-29T03:53:50.671Z,0.90
2023-01-29T03:56:29.911Z,0.90
2023-01-29T03:59:02.422Z,0.90
2023-01-29T04:01:40.157Z,0.90
2023-01-29T04:04:15.581Z,0.90
2023-01-29T04:06:46.829Z,1.00
2023-01-29T04:09:22.271Z,1.00
2023-01-29T04:11:56.275Z,0.90
2023-01-29T04:14:25.620Z,1.00
2023-01-29T04:16:57.704Z,0.90
2023-01-29T04:19:28.071Z,0.80
2023-01-29T04:22:05.066Z,0.90
2023-01-29T04:24:33.843Z,0.90
2023-01-29T04:27:17.934Z,0.80
2023-01-29T04:29:58.839Z,0.80
2023-01-29T04:32:33.339Z,0.80
2023-01-29T04:35:16.277Z,0.80
2023-01-29T04:37:51.906Z,0.80
2023-01-29T04:40:26.648Z,0.80
2023-01-29T04:43:06.478Z,0.70
2023-01-29T04:45:46.228Z,0.80
2023-01-29T04:48:21.704Z,0.90
2023-01-29T04:51:03.702Z,0.90
2023-01-29T04:53:38.942Z,0.80
2023-01-29T04:56:11.534Z,0.80
2023-01-29T04:58:43.815Z,0.80
2023-01-29T05:01:17.335Z,0.70
2023-01-29T05:03:49.905Z,0.60
2023-01-29T05:06:21.715Z,0.70
2023-01-29T05:08:50.979Z,0.70
2023-01-29T05:11:21.100Z,0.70
2023-01-29T05:13:50.156Z,0.70
2023-01-29T05:16:23.992Z,0.70
2023-01-29T05:18:52.593Z,0.60
2023-01-29T05:21:23.722Z,0.70
2023-01-29T05:24:13.727Z,0.60
2023-01-29T05:27:00.759Z,0.60
2023-01-29T05:29:28.945Z,0.60
2023-01-29T05:31:57.066Z,0.60
2023-01-29T05:34:25.514Z,0.60
2023-01-29T05:36:55.011Z,0.60
2023-01-29T05:39:23.587Z,0.60
2023-01-29T05:41:51.681Z,0.50
2023-01-29T05:44:20.666Z,0.50
2023-01-29T05:46:48.792Z,0.60
2023-01-29T05:49:18.475Z,0.50
2023-01-29T05:51:46.867Z,0.50
2023-01-29T05:54:16.529Z,0.50
2023-01-29T05:56:44.673Z,0.50
2023-01-29T05:59:13.794Z,0.60
2023-01-29T06:01:41.916Z,0.60
2023-01-29T06:04:10.485Z,0.60
2023-01-29T06:06:38.580Z,0.60
2023-01-29T06:09:06.709Z,0.70
2023-01-29T06:11:36.326Z,0.70
2023-01-29T06:14:04.453Z,0.80
2023-01-29T06:16:32.644Z,0.70
2023-01-29T06:19:00.816Z,0.80
2023-01-29T06:21:29.277Z,0.70
2023-01-29T06:23:57.456Z,0.70
2023-01-29T06:26:25.943Z,0.80
2023-01-29T06:28:55.636Z,0.80
2023-01-29T06:31:37.211Z,0.80
2023-01-29T06:34:06.239Z,0.80
2023-01-29T06:36:34.456Z,0.80
2023-01-29T06:39:03.023Z,0.80
2023-01-29T06:41:31.152Z,0.80
2023-01-29T06:44:00.707Z,0.80
2023-01-29T06:46:29.039Z,0.90
2023-01-29T06:49:00.255Z,0.90
2023-01-29T06:51:28.450Z,0.90
2023-01-29T06:53:56.916Z,0.90
2023-01-29T06:56:25.650Z,0.90
2023-01-29T06:58:54.042Z,0.90
2023-01-29T07:01:35.122Z,0.80
2023-01-29T07:04:04.393Z,0.80
2023-01-29T07:06:32.885Z,0.90
2023-01-29T07:09:01.094Z,0.90
2023-01-29T07:11:29.256Z,0.90
2023-01-29T07:13:57.596Z,0.90
2023-01-29T07:16:27.698Z,0.90
2023-01-29T07:18:56.174Z,0.90
2023-01-29T07:21:24.397Z,0.90
2023-01-29T07:23:52.571Z,0.90
2023-01-29T07:26:20.736Z,0.90
2023-01-29T07:28:48.855Z,0.90
2023-01-29T07:31:17.077Z,1.00
2023-01-29T07:33:47.444Z,1.00
2023-01-29T07:36:16.451Z,1.00
2023-01-29T07:38:44.551Z,1.00
2023-01-29T07:41:13.751Z,1.00
2023-01-29T07:43:42.151Z,1.00
2023-01-29T07:46:10.388Z,1.10
2023-01-29T07:48:38.679Z,1.10
2023-01-29T07:51:08.579Z,1.10
2023-01-29T07:53:37.274Z,1.10
2023-01-29T07:56:06.102Z,1.20
2023-01-29T07:58:36.584Z,1.20
2023-01-29T08:01:07.874Z,1.20
2023-01-29T08:03:36.092Z,1.20
2023-01-29T08:06:05.365Z,1.30
2023-01-29T08:08:35.145Z,1.30
2023-01-29T08:11:05.681Z,1.30
2023-01-29T08:13:34.375Z,1.40
2023-01-29T08:16:03.332Z,1.40
2023-01-29T08:18:32.607Z,1.30
2023-01-29T08:21:01.947Z,1.40
2023-01-29T08:23:30.433Z,1.40
2023-01-29T08:26:00.332Z,1.50
2023-01-29T08:28:28.830Z,1.40
2023-01-29T08:30:57.026Z,1.50
2023-01-29T08:33:38.079Z,1.50
2023-01-29T08:36:07.745Z,1.40
2023-01-29T08:38:36.539Z,1.50
2023-01-29T08:41:06.420Z,1.50
2023-01-29T08:43:35.563Z,1.50
2023-01-29T08:46:05.339Z,1.50
2023-01-29T08:48:33.587Z,1.50
2023-01-29T08:51:02.854Z,1.50
2023-01-29T08:53:31.118Z,1.60
2023-01-29T08:55:59.282Z,1.50
2023-01-29T08:58:29.147Z,1.60
2023-01-29T09:00:57.620Z,1.60
2023-01-29T09:03:25.843Z,1.70
2023-01-29T09:05:54.219Z,1.70
2023-01-29T09:08:22.315Z,1.70
2023-01-29T09:10:50.444Z,1.70
2023-01-29T09:13:18.768Z,1.70
2023-01-29T09:15:48.255Z,1.70
2023-01-29T09:18:16.659Z,1.70
2023-01-29T09:20:44.814Z,1.80
2023-01-29T09:23:13.355Z,1.80
2023-01-29T09:25:44.164Z,1.80
2023-01-29T09:28:12.407Z,1.90
2023-01-29T09:30:40.867Z,1.90
2023-01-29T09:33:10.455Z,1.90
2023-01-29T09:35:39.168Z,1.90
2023-01-29T09:38:07.292Z,1.90
2023-01-29T09:40:42.225Z,1.80
2023-01-29T09:43:15.059Z,1.70
2023-01-29T09:45:51.277Z,1.80
2023-01-29T09:48:23.025Z,1.80
2023-01-29T09:50:56.392Z,1.80
2023-01-29T09:53:32.606Z,1.80
2023-01-29T09:56:05.104Z,1.80
2023-01-29T09:58:35.991Z,1.90
2023-01-29T10:01:16.396Z,1.90
2023-01-29T10:04:03.903Z,1.90
2023-01-29T10:06:56.298Z,1.90
2023-01-29T10:10:04.354Z,2.00
2023-01-29T10:12:43.663Z,2.00
2023-01-29T10:15:26.625Z,2.00
2023-01-29T10:18:06.760Z,2.10
2023-01-29T10:20:51.272Z,2.10
2023-01-29T10:23:25.151Z,2.20
2023-01-29T10:25:54.882Z,2.20
2023-01-29T10:28:30.173Z,2.20
2023-01-29T10:31:03.709Z,2.10
2023-01-29T10:33:49.482Z,2.10
2023-01-29T10:36:33.719Z,2.10
2023-01-29T10:39:01.898Z,2.10
2023-01-29T10:41:50.614Z,2.20
2023-01-29T10:44:29.210Z,2.20
2023-01-29T10:47:20.584Z,2.10
2023-01-29T10:50:06.976Z,2.20
2023-01-29T10:52:58.161Z,2.30
2023-01-29T10:55:38.118Z,2.20
2023-01-29T10:58:18.966Z,2.20
2023-01-29T11:00:47.231Z,2.20
2023-01-29T11:06:16.106Z,2.30
2023-01-29T11:08:54.087Z,2.30
2023-01-29T11:11:25.792Z,2.40
2023-01-29T11:13:59.800Z,2.40
2023-01-29T11:16:30.235Z,2.50
2023-01-29T11:18:59.806Z,2.50
2023-01-29T11:21:29.699Z,2.50
2023-01-29T11:24:13.271Z,2.50
2023-01-29T11:26:44.645Z,2.60
2023-01-29T11:29:39.313Z,2.60
2023-01-29T11:32:09.865Z,2.60
2023-01-29T11:34:58.624Z,2.70
2023-01-29T11:37:35.679Z,2.60
2023-01-29T11:40:34.592Z,2.60
2023-01-29T11:43:24.519Z,2.70
2023-01-29T11:45:56.313Z,2.80
2023-01-29T11:48:28.576Z,2.70
2023-01-29T11:51:00.624Z,2.70
2023-01-29T11:53:36.911Z,2.80
2023-01-29T11:56:18.402Z,2.90
2023-01-29T11:58:47.581Z,2.90
2023-01-29T12:01:19.199Z,2.90
2023-01-29T12:03:52.180Z,2.90
2023-01-29T12:06:23.361Z,3.00
2023-01-29T12:08:57.416Z,3.10
2023-01-29T12:11:30.150Z,3.10
2023-01-29T12:14:00.933Z,3.10
2023-01-29T12:16:34.382Z,3.10
2023-01-29T12:19:11.818Z,3.00
2023-01-29T12:21:48.262Z,3.00
2023-01-29T12:24:31.873Z,3.00
2023-01-29T12:27:08.865Z,3.00
2023-01-29T12:29:45.398Z,3.10
2023-01-29T12:32:24.317Z,3.00
2023-01-29T12:34:56.767Z,3.10
2023-01-29T12:37:31.431Z,3.00
2023-01-29T12:39:59.858Z,3.10
2023-01-29T12:42:29.453Z,3.00
2023-01-29T12:45:02.008Z,3.10
2023-01-29T12:47:34.623Z,3.10
2023-01-29T12:50:06.657Z,3.20
2023-01-29T12:52:40.903Z,3.10
2023-01-29T12:55:16.663Z,3.10
2023-01-29T12:57:52.054Z,3.10
2023-01-29T13:00:23.663Z,3.10
2023-01-29T13:02:58.269Z,3.10
2023-01-29T13:05:29.605Z,3.10
2023-01-29T13:08:02.387Z,3.10
2023-01-29T13:10:35.407Z,3.10
2023-01-29T13:13:13.570Z,3.20
2023-01-29T13:15:45.154Z,3.20
2023-01-29T13:18:37.735Z,3.20
2023-01-29T13:21:06.856Z,3.10
2023-01-29T13:23:38.602Z,3.20
2023-01-29T13:26:07.574Z,3.10
2023-01-29T13:28:38.291Z,3.20
2023-01-29T13:31:25.624Z,3.20
2023-01-29T13:33:56.680Z,3.30
2023-01-29T13:36:29.215Z,3.10
2023-01-29T13:39:02.823Z,3.20
2023-01-29T13:41:36.589Z,3.10
2023-01-29T13:44:08.519Z,3.20
2023-01-29T13:46:42.710Z,3.10
2023-01-29T13:49:30.411Z,3.20
2023-01-29T13:51:59.955Z,3.20
2023-01-29T13:54:29.049Z,3.30
2023-01-29T13:57:02.287Z,3.30
2023-01-29T13:59:55.460Z,3.30
2023-01-29T14:02:28.694Z,3.20
2023-01-29T14:05:34.015Z,3.30
2023-01-29T14:08:03.130Z,3.20
2023-01-29T14:10:32.979Z,3.20
2023-01-29T14:13:28.503Z,3.30
2023-01-29T14:16:33.549Z,3.20
2023-01-29T14:19:03.528Z,3.30
2023-01-29T14:21:33.262Z,3.20
2023-01-29T14:24:10.987Z,3.10
2023-01-29T14:26:45.540Z,3.20
2023-01-29T14:29:34.259Z,3.20
2023-01-29T14:32:14.276Z,3.20
2023-01-29T14:34:46.286Z,3.10
2023-01-29T14:37:30.129Z,3.10
2023-01-29T14:40:01.224Z,3.10
2023-01-29T14:42:34.386Z,3.20
2023-01-29T14:45:11.324Z,3.20
2023-01-29T14:48:10.862Z,3.30
2023-01-29T14:51:12.451Z,3.20
2023-01-29T14:53:54.591Z,3.20
2023-01-29T14:56:29.299Z,3.20
2023-01-29T14:59:06.726Z,3.30
2023-01-29T15:01:38.764Z,3.10
2023-01-29T15:04:19.504Z,3.20
2023-01-29T15:06:50.749Z,3.20
2023-01-29T15:09:36.472Z,3.20
2023-01-29T15:12:14.577Z,3.20
2023-01-29T15:14:49.717Z,3.10
2023-01-29T15:17:24.751Z,3.20
2023-01-29T15:19:55.312Z,3.20
2023-01-29T15:22:26.242Z,3.20
2023-01-29T15:25:07.379Z,3.20
2023-01-29T15:27:36.314Z,3.10
2023-01-29T15:30:08.199Z,3.10
2023-01-29T15:32:38.980Z,3.10
2023-01-29T15:35:11.982Z,3.10
2023-01-29T15:37:41.496Z,3.00
2023-01-29T15:40:18.106Z,3.10
2023-01-29T15:42:48.711Z,3.10
2023-01-29T15:45:25.865Z,3.00
2023-01-29T15:47:56.483Z,3.00
2023-01-29T15:50:26.042Z,3.10
2023-01-29T15:52:56.214Z,3.10
2023-01-29T15:55:25.110Z,3.10
2023-01-29T15:57:53.657Z,3.00
2023-01-29T16:00:25.136Z,3.10
2023-01-29T16:02:53.410Z,3.10
2023-01-29T16:05:23.424Z,3.10
2023-01-29T16:07:53.656Z,3.00
2023-01-29T16:10:23.788Z,3.00
2023-01-29T16:12:53.513Z,3.00
2023-01-29T16:15:33.621Z,3.00
2023-01-29T16:18:04.437Z,3.00
2023-01-29T16:20:37.489Z,3.00
2023-01-29T16:23:08.493Z,2.90
2023-01-29T16:25:39.305Z,2.90
2023-01-29T16:28:11.041Z,3.00
2023-01-29T16:30:40.507Z,3.00
2023-01-29T16:33:13.980Z,3.00
2023-01-29T16:35:42.595Z,2.90
2023-01-29T16:38:28.015Z,3.00
2023-01-29T16:41:15.759Z,3.00
2023-01-29T16:43:51.709Z,2.90
2023-01-29T16:46:27.467Z,2.80
2023-01-29T16:48:55.778Z,2.80
2023-01-29T16:51:27.668Z,2.80
2023-01-29T16:54:08.929Z,2.80
2023-01-29T16:56:38.906Z,2.70
2023-01-29T16:59:08.163Z,2.70
2023-01-29T17:01:37.485Z,2.80
2023-01-29T17:04:11.382Z,2.70
2023-01-29T17:06:41.552Z,2.60
2023-01-29T17:09:22.345Z,2.70
2023-01-29T17:11:56.276Z,2.60
2023-01-29T17:14:26.230Z,2.60
2023-01-29T17:16:57.671Z,2.50
2023-01-29T17:19:27.343Z,2.60
2023-01-29T17:21:55.428Z,2.70
2023-01-29T17:24:25.207Z,2.70
2023-01-29T17:26:53.917Z,2.70
2023-01-29T17:29:27.991Z,2.60
2023-01-29T17:31:56.182Z,2.60
2023-01-29T17:34:25.979Z,2.60
2023-01-29T17:36:54.095Z,2.60
2023-01-29T17:39:25.828Z,2.60
2023-01-29T17:41:55.520Z,2.50
2023-01-29T17:44:26.166Z,2.50
2023-01-29T17:46:54.472Z,2.60
2023-01-29T17:49:26.585Z,2.50
2023-01-29T17:51:56.232Z,2.60
2023-01-29T17:54:26.011Z,2.60
2023-01-29T17:56:55.475Z,2.60
2023-01-29T17:59:25.667Z,2.60
2023-01-29T18:01:54.197Z,2.60
2023-01-29T18:04:22.467Z,2.70
2023-01-29T18:06:52.675Z,2.70
2023-01-29T18:09:22.290Z,2.60
2023-01-29T18:11:53.784Z,2.60
2023-01-29T18:14:22.204Z,2.60
2023-01-29T18:16:50.453Z,2.60
2023-01-29T18:19:22.263Z,2.60
2023-01-29T18:21:51.967Z,2.50
2023-01-29T18:24:20.840Z,2.60
2023-01-29T18:26:49.306Z,2.70
2023-01-29T18:29:19.402Z,2.60
2023-01-29T18:31:50.216Z,2.60
2023-01-29T18:34:18.613Z,2.60
2023-01-29T18:36:47.775Z,2.70
2023-01-29T18:39:16.670Z,2.60
2023-01-29T18:41:45.311Z,2.60
2023-01-29T18:44:13.457Z,2.60
2023-01-29T18:46:42.980Z,2.70
2023-01-29T18:49:12.009Z,2.70
2023-01-29T18:51:40.101Z,2.60
2023-01-29T18:54:08.463Z,2.60
2023-01-29T18:56:36.544Z,2.60
2023-01-29T18:59:06.404Z,2.60
2023-01-29T19:01:35.438Z,2.60
2023-01-29T19:04:04.869Z,2.60
2023-01-29T19:06:37.156Z,2.60
2023-01-29T19:09:06.474Z,2.60
2023-01-29T19:11:34.995Z,2.70
2023-01-29T19:14:03.115Z,2.70
2023-01-29T19:16:31.301Z,2.70
2023-01-29T19:19:00.087Z,2.70
2023-01-29T19:21:30.404Z,2.60
2023-01-29T19:23:58.861Z,2.70
2023-01-29T19:26:27.075Z,2.70
2023-01-29T19:28:55.233Z,2.70
2023-01-29T19:31:23.369Z,2.70
2023-01-29T19:33:51.499Z,2.70
2023-01-29T19:36:19.719Z,2.70
2023-01-29T19:38:49.621Z,2.60
2023-01-29T19:41:17.825Z,2.70
2023-01-29T19:43:46.414Z,2.60
2023-01-29T19:46:14.751Z,2.70
2023-01-29T19:48:43.203Z,2.70
2023-01-29T19:51:12.281Z,2.60
2023-01-29T19:53:43.886Z,2.60
2023-01-29T19:56:15.498Z,2.70
2023-01-29T19:58:44.929Z,2.60
2023-01-29T20:01:15.926Z,2.70
2023-01-29T20:03:46.683Z,2.70
2023-01-29T20:06:17.143Z,2.70
2023-01-29T20:08:47.016Z,2.70
2023-01-29T20:11:18.047Z,2.70
2023-01-29T20:13:48.557Z,2.70
2023-01-29T20:16:17.733Z,2.70
2023-01-29T20:18:46.541Z,2.70
2023-01-29T20:21:17.108Z,2.70
2023-01-29T20:23:46.076Z,2.70
2023-01-29T20:26:18.010Z,2.70
2023-01-29T20:28:48.125Z,2.70
2023-01-29T20:31:17.170Z,2.70
2023-01-29T20:33:45.800Z,2.70
2023-01-29T20:36:14.826Z,2.70
2023-01-29T20:38:43.232Z,2.70
2023-01-29T20:41:14.965Z,2.70
2023-01-29T20:43:45.270Z,2.80
2023-01-29T20:46:14.339Z,2.70
2023-01-29T20:48:42.904Z,2.70
2023-01-29T20:51:15.304Z,2.70
2023-01-29T20:53:45.436Z,2.70
2023-01-29T20:56:15.261Z,2.70
2023-01-29T20:58:44.970Z,2.70
2023-01-29T21:01:14.555Z,2.70
2023-01-29T21:03:43.469Z,2.60
2023-01-29T21:06:12.378Z,2.70
2023-01-29T21:08:41.523Z,2.80
2023-01-29T21:11:11.116Z,2.70
2023-01-29T21:13:39.552Z,2.80
2023-01-29T21:16:11.634Z,2.80
2023-01-29T21:18:40.066Z,2.70
2023-01-29T21:21:08.206Z,2.70
2023-01-29T21:23:36.331Z,2.70
2023-01-29T21:26:06.233Z,2.70
2023-01-29T21:28:35.063Z,2.70
2023-01-29T21:31:10.112Z,2.70
2023-01-29T21:33:38.831Z,2.70
2023-01-29T21:36:08.687Z,2.80
2023-01-29T21:38:36.945Z,2.70
2023-01-29T21:41:08.198Z,2.80
2023-01-29T21:43:35.323Z,2.70
2023-01-29T21:46:11.923Z,2.70
2023-01-29T21:48:41.770Z,2.70
2023-01-29T21:51:10.074Z,2.70
2023-01-29T21:53:38.268Z,2.80
2023-01-29T21:56:07.466Z,2.70
2023-01-29T21:58:35.986Z,2.70
2023-01-29T22:01:28.095Z,2.70
2023-01-29T22:03:53.552Z,2.80
2023-01-29T22:06:21.649Z,2.70
2023-01-29T22:08:50.194Z,2.70
2023-01-29T22:11:18.581Z,2.80
2023-01-29T22:13:47.150Z,2.70
2023-01-29T22:16:15.283Z,2.80
2023-01-29T22:18:43.421Z,2.70
2023-01-29T22:21:12.881Z,2.80
2023-01-29T22:23:41.298Z,2.70
2023-01-29T22:26:09.921Z,2.70
2023-01-29T22:28:38.076Z,2.70
2023-01-29T22:31:07.281Z,2.70
2023-01-29T22:33:35.660Z,2.70
2023-01-29T22:36:04.306Z,2.70
2023-01-29T22:38:33.931Z,2.70
2023-01-29T22:41:02.716Z,2.70
2023-01-29T22:43:31.121Z,2.80
2023-01-29T22:45:59.326Z,2.80
2023-01-29T22:48:28.579Z,2.70
2023-01-29T22:51:10.806Z,2.80
2023-01-29T22:53:41.821Z,2.80
2023-01-29T22:56:11.311Z,2.80
2023-01-29T22:58:41.201Z,2.80
2023-01-29T23:01:09.835Z,2.90
2023-01-29T23:03:38.199Z,2.90
2023-01-29T23:06:06.516Z,2.90
2023-01-29T23:08:35.160Z,2.90
2023-01-29T23:11:15.183Z,3.00
2023-01-29T23:13:45.006Z,3.00
2023-01-29T23:16:13.990Z,3.00
2023-01-29T23:18:42.661Z,3.00
2023-01-29T23:21:11.195Z,3.10
2023-01-29T23:23:39.933Z,3.10
2023-01-29T23:26:29.610Z,3.10
2023-01-29T23:28:57.748Z,3.10
2023-01-29T23:31:26.218Z,3.10
2023-01-29T23:33:54.307Z,3.10
2023-01-29T23:36:22.748Z,3.10
2023-01-29T23:38:51.050Z,3.20
2023-01-29T23:41:21.256Z,3.20
2023-01-29T23:43:50.243Z,3.20
2023-01-29T23:46:18.360Z,3.20
2023-01-29T23:48:46.755Z,3.20
2023-01-29T23:51:14.989Z,3.20
2023-01-29T23:53:43.177Z,3.20
2023-01-29T23:56:12.840Z,3.20
2023-01-29T23:58:42.413Z,3.30
